sensor_id;sensor_type;location;lat;lon;timestamp;pressure;altitude;pressure_sealevel;temperature;humidity
60897;BME280;46749;32.932;-117.130;2023-01-27T00:00:23;102529.88;;;16.14;53.78
60897;BME280;46749;32.932;-117.130;2023-01-27T00:02:49;102525.50;;;16.14;53.61
60897;BME280;46749;32.932;-117.130;2023-01-27T00:05:16;102522.88;;;16.14;53.47
60897;BME280;46749;32.932;-117.130;2023-01-27T00:07:42;102529.03;;;16.15;53.53
60897;BME280;46749;32.932;-117.130;2023-01-27T00:10:17;102543.88;;;16.14;53.43
60897;BME280;46749;32.932;-117.130;2023-01-27T00:12:45;102535.19;;;16.15;53.67
60897;BME280;46749;32.932;-117.130;2023-01-27T00:15:30;102531.66;;;16.15;53.52
60897;BME280;46749;32.932;-117.130;2023-01-27T00:17:57;102530.75;;;16.14;53.54
60897;BME280;46749;32.932;-117.130;2023-01-27T00:20:24;102532.56;;;16.15;53.71
60897;BME280;46749;32.932;-117.130;2023-01-27T00:23:17;102529.03;;;16.15;53.55
60897;BME280;46749;32.932;-117.130;2023-01-27T00:26:04;102534.28;;;16.15;53.64
60897;BME280;46749;32.932;-117.130;2023-01-27T00:28:35;102532.56;;;16.15;53.46
60897;BME280;46749;32.932;-117.130;2023-01-27T00:31:02;102534.28;;;16.15;53.52
60897;BME280;46749;32.932;-117.130;2023-01-27T00:33:28;102534.28;;;16.15;53.48
60897;BME280;46749;32.932;-117.130;2023-01-27T00:36:03;102531.66;;;16.15;53.39
60897;BME280;46749;32.932;-117.130;2023-01-27T00:38:32;102522.97;;;16.16;53.39
60897;BME280;46749;32.932;-117.130;2023-01-27T00:40:59;102526.41;;;16.15;53.58
60897;BME280;46749;32.932;-117.130;2023-01-27T00:43:48;102520.34;;;16.16;53.25
60897;BME280;46749;32.932;-117.130;2023-01-27T00:46:16;102519.47;;;16.15;53.59
60897;BME280;46749;32.932;-117.130;2023-01-27T00:48:43;102516.84;;;16.15;53.47
60897;BME280;46749;32.932;-117.130;2023-01-27T00:51:10;102515.13;;;16.16;53.47
60897;BME280;46749;32.932;-117.130;2023-01-27T00:53:37;102518.53;;;16.15;53.61
60897;BME280;46749;32.932;-117.130;2023-01-27T00:56:04;102522.09;;;16.15;53.48
60897;BME280;46749;32.932;-117.130;2023-01-27T00:58:31;102520.34;;;16.16;53.33
60897;BME280;46749;32.932;-117.130;2023-01-27T01:00:59;102525.50;;;16.14;53.69
60897;BME280;46749;32.932;-117.130;2023-01-27T01:03:29;102523.78;;;16.15;53.50
60897;BME280;46749;32.932;-117.130;2023-01-27T01:05:59;102525.50;;;16.14;53.42
60897;BME280;46749;32.932;-117.130;2023-01-27T01:08:26;102529.88;;;16.14;53.65
60897;BME280;46749;32.932;-117.130;2023-01-27T01:10:52;102533.38;;;16.14;53.56
60897;BME280;46749;32.932;-117.130;2023-01-27T01:13:18;102537.72;;;16.14;53.43
60897;BME280;46749;32.932;-117.130;2023-01-27T01:15:46;102531.59;;;16.13;53.65
60897;BME280;46749;32.932;-117.130;2023-01-27T01:18:13;102534.22;;;16.13;53.44
60897;BME280;46749;32.932;-117.130;2023-01-27T01:20:44;102536.84;;;16.13;53.42
60897;BME280;46749;32.932;-117.130;2023-01-27T01:23:12;102535.94;;;16.13;53.40
60897;BME280;46749;32.932;-117.130;2023-01-27T01:25:39;102530.69;;;16.13;53.54
60897;BME280;46749;32.932;-117.130;2023-01-27T01:28:06;102523.66;;;16.12;53.58
60897;BME280;46749;32.932;-117.130;2023-01-27T01:30:36;102533.31;;;16.13;53.35
60897;BME280;46749;32.932;-117.130;2023-01-27T01:33:03;102531.59;;;16.13;53.65
60897;BME280;46749;32.932;-117.130;2023-01-27T01:35:49;102534.16;;;16.12;53.55
60897;BME280;46749;32.932;-117.130;2023-01-27T01:38:15;102541.19;;;16.13;53.53
60897;BME280;46749;32.932;-117.130;2023-01-27T01:40:43;102530.69;;;16.13;53.55
60897;BME280;46749;32.932;-117.130;2023-01-27T01:43:14;102535.06;;;16.12;53.52
60897;BME280;46749;32.932;-117.130;2023-01-27T01:45:46;102534.16;;;16.12;53.62
60897;BME280;46749;32.932;-117.130;2023-01-27T01:50:49;102535.81;;;16.10;53.49
60897;BME280;46749;32.932;-117.130;2023-01-27T01:53:17;102533.25;;;16.11;53.64
60897;BME280;46749;32.932;-117.130;2023-01-27T01:55:46;102531.53;;;16.12;53.43
60897;BME280;46749;32.932;-117.130;2023-01-27T01:58:13;102533.25;;;16.11;53.60
60897;BME280;46749;32.932;-117.130;2023-01-27T02:00:40;102534.16;;;16.12;53.63
60897;BME280;46749;32.932;-117.130;2023-01-27T02:03:06;102534.16;;;16.12;53.51
60897;BME280;46749;32.932;-117.130;2023-01-27T02:05:36;102535.81;;;16.10;53.46
60897;BME280;46749;32.932;-117.130;2023-01-27T02:08:26;102540.19;;;16.09;53.50
60897;BME280;46749;32.932;-117.130;2023-01-27T02:10:54;102535.81;;;16.10;53.47
60897;BME280;46749;32.932;-117.130;2023-01-27T02:13:21;102534.00;;;16.09;53.38
60897;BME280;46749;32.932;-117.130;2023-01-27T02:15:49;102536.63;;;16.09;53.66
60897;BME280;46749;32.932;-117.130;2023-01-27T02:18:17;102530.59;;;16.10;53.40
60897;BME280;46749;32.932;-117.130;2023-01-27T02:20:46;102534.84;;;16.08;53.59
60897;BME280;46749;32.932;-117.130;2023-01-27T02:26:13;102540.09;;;16.08;53.41
60897;BME280;46749;32.932;-117.130;2023-01-27T02:28:40;102534.00;;;16.09;53.65
60897;BME280;46749;32.932;-117.130;2023-01-27T02:31:07;102540.19;;;16.09;53.24
60897;BME280;46749;32.932;-117.130;2023-01-27T02:33:33;102538.34;;;16.08;53.50
60897;BME280;46749;32.932;-117.130;2023-01-27T02:38:37;102537.47;;;16.08;53.44
60897;BME280;46749;32.932;-117.130;2023-01-27T02:41:13;102532.22;;;16.08;53.44
60897;BME280;46749;32.932;-117.130;2023-01-27T02:43:41;102530.50;;;16.08;53.48
60897;BME280;46749;32.932;-117.130;2023-01-27T02:46:07;102526.97;;;16.08;53.47
60897;BME280;46749;32.932;-117.130;2023-01-27T02:48:34;102523.47;;;16.07;53.41
60897;BME280;46749;32.932;-117.130;2023-01-27T02:51:00;102520.84;;;16.07;53.51
60897;BME280;46749;32.932;-117.130;2023-01-27T02:53:26;102523.66;;;16.12;53.55
60897;BME280;46749;32.932;-117.130;2023-01-27T02:55:52;102526.41;;;16.15;53.58
60897;BME280;46749;32.932;-117.130;2023-01-27T02:58:18;102520.47;;;16.19;53.57
60897;BME280;46749;32.932;-117.130;2023-01-27T03:00:45;102524.19;;;16.24;53.73
60897;BME280;46749;32.932;-117.130;2023-01-27T03:03:11;102521.69;;;16.27;53.87
60897;BME280;46749;32.932;-117.130;2023-01-27T03:05:37;102526.19;;;16.30;53.88
60897;BME280;46749;32.932;-117.130;2023-01-27T03:08:05;102519.19;;;16.30;54.12
60897;BME280;46749;32.932;-117.130;2023-01-27T03:10:31;102515.75;;;16.31;54.22
60897;BME280;46749;32.932;-117.130;2023-01-27T03:12:57;102509.72;;;16.34;54.16
60897;BME280;46749;32.932;-117.130;2023-01-27T03:15:23;102510.75;;;16.37;53.99
60897;BME280;46749;32.932;-117.130;2023-01-27T03:18:09;102511.78;;;16.41;54.14
60897;BME280;46749;32.932;-117.130;2023-01-27T03:20:49;102506.53;;;16.41;54.22
60897;BME280;46749;32.932;-117.130;2023-01-27T03:23:35;102512.69;;;16.41;54.06
60897;BME280;46749;32.932;-117.130;2023-01-27T03:26:06;102511.00;;;16.43;54.37
60897;BME280;46749;32.932;-117.130;2023-01-27T03:28:32;102507.59;;;16.46;54.34
60897;BME280;46749;32.932;-117.130;2023-01-27T03:31:16;102500.72;;;16.48;54.11
60897;BME280;46749;32.932;-117.130;2023-01-27T03:33:46;102500.75;;;16.50;54.15
60897;BME280;46749;32.932;-117.130;2023-01-27T03:36:13;102514.72;;;16.49;54.20
60897;BME280;46749;32.932;-117.130;2023-01-27T03:38:58;102504.28;;;16.50;54.39
60897;BME280;46749;32.932;-117.130;2023-01-27T03:41:42;102504.41;;;16.53;54.26
60897;BME280;46749;32.932;-117.130;2023-01-27T03:44:27;102499.28;;;16.56;54.27
60897;BME280;46749;32.932;-117.130;2023-01-27T03:47:11;102506.19;;;16.54;54.42
60897;BME280;46749;32.932;-117.130;2023-01-27T03:49:37;102504.47;;;16.55;54.32
60897;BME280;46749;32.932;-117.130;2023-01-27T03:52:03;102507.09;;;16.55;54.32
60897;BME280;46749;32.932;-117.130;2023-01-27T03:54:30;102502.78;;;16.57;54.50
60897;BME280;46749;32.932;-117.130;2023-01-27T03:56:56;102506.38;;;16.59;54.41
60897;BME280;46749;32.932;-117.130;2023-01-27T03:59:22;102495.06;;;16.60;54.41
60897;BME280;46749;32.932;-117.130;2023-01-27T04:01:48;102495.06;;;16.60;54.46
60897;BME280;46749;32.932;-117.130;2023-01-27T04:04:15;102495.06;;;16.60;54.47
60897;BME280;46749;32.932;-117.130;2023-01-27T04:06:59;102498.50;;;16.59;54.36
60897;BME280;46749;32.932;-117.130;2023-01-27T04:09:34;102491.47;;;16.58;54.68
60897;BME280;46749;32.932;-117.130;2023-01-27T04:12:04;102487.06;;;16.57;54.28
60897;BME280;46749;32.932;-117.130;2023-01-27T04:14:36;102478.28;;;16.56;54.24
60897;BME280;46749;32.932;-117.130;2023-01-27T04:17:05;102484.38;;;16.55;54.19
60897;BME280;46749;32.932;-117.130;2023-01-27T04:19:32;102483.44;;;16.53;54.09
60897;BME280;46749;32.932;-117.130;2023-01-27T04:21:59;102469.41;;;16.53;54.03
60897;BME280;46749;32.932;-117.130;2023-01-27T04:24:26;102477.41;;;16.56;54.75
60897;BME280;46749;32.932;-117.130;2023-01-27T04:26:58;102475.72;;;16.58;53.94
60897;BME280;46749;32.932;-117.130;2023-01-27T04:29:27;102479.25;;;16.58;54.41
60897;BME280;46749;32.932;-117.130;2023-01-27T04:31:54;102475.72;;;16.58;54.22
60897;BME280;46749;32.932;-117.130;2023-01-27T04:34:21;102476.56;;;16.57;54.29
60897;BME280;46749;32.932;-117.130;2023-01-27T04:36:47;102479.19;;;16.57;54.40
60897;BME280;46749;32.932;-117.130;2023-01-27T04:39:15;102469.53;;;16.56;54.07
60897;BME280;46749;32.932;-117.130;2023-01-27T04:41:42;102467.75;;;16.55;54.17
60897;BME280;46749;32.932;-117.130;2023-01-27T04:44:08;102470.38;;;16.55;54.31
60897;BME280;46749;32.932;-117.130;2023-01-27T04:46:35;102471.25;;;16.55;54.27
60897;BME280;46749;32.932;-117.130;2023-01-27T04:49:02;102466.97;;;16.57;54.01
60897;BME280;46749;32.932;-117.130;2023-01-27T04:51:28;102459.97;;;16.58;54.06
60897;BME280;46749;32.932;-117.130;2023-01-27T04:53:55;102459.16;;;16.59;54.20
60897;BME280;46749;32.932;-117.130;2023-01-27T04:56:30;102462.59;;;16.58;54.30
60897;BME280;46749;32.932;-117.130;2023-01-27T04:59:00;102461.72;;;16.57;54.08
60897;BME280;46749;32.932;-117.130;2023-01-27T05:01:27;102470.44;;;16.56;54.18
60897;BME280;46749;32.932;-117.130;2023-01-27T05:03:54;102465.13;;;16.55;54.01
60897;BME280;46749;32.932;-117.130;2023-01-27T05:06:20;102478.25;;;16.55;54.17
60897;BME280;46749;32.932;-117.130;2023-01-27T05:08:47;102475.66;;;16.56;54.34
60897;BME280;46749;32.932;-117.130;2023-01-27T05:11:14;102480.13;;;16.59;54.03
60897;BME280;46749;32.932;-117.130;2023-01-27T05:13:40;102477.50;;;16.59;54.06
60897;BME280;46749;32.932;-117.130;2023-01-27T05:16:15;102476.63;;;16.58;54.05
60897;BME280;46749;32.932;-117.130;2023-01-27T05:18:42;102470.47;;;16.58;54.20
60897;BME280;46749;32.932;-117.130;2023-01-27T05:21:14;102472.22;;;16.57;54.09
60897;BME280;46749;32.932;-117.130;2023-01-27T05:23:41;102466.91;;;16.56;54.12
60897;BME280;46749;32.932;-117.130;2023-01-27T05:26:14;102465.97;;;16.54;53.94
60897;BME280;46749;32.932;-117.130;2023-01-27T05:28:43;102462.50;;;16.55;54.02
60897;BME280;46749;32.932;-117.130;2023-01-27T05:33:36;102467.84;;;16.58;54.05
60897;BME280;46749;32.932;-117.130;2023-01-27T05:36:04;102457.38;;;16.58;53.95
60897;BME280;46749;32.932;-117.130;2023-01-27T05:38:31;102468.75;;;16.58;54.21
60897;BME280;46749;32.932;-117.130;2023-01-27T05:40:59;102454.69;;;16.56;54.16
60897;BME280;46749;32.932;-117.130;2023-01-27T05:43:31;102455.53;;;16.55;54.09
60897;BME280;46749;32.932;-117.130;2023-01-27T05:46:02;102462.50;;;16.55;53.86
60897;BME280;46749;32.932;-117.130;2023-01-27T05:48:29;102453.66;;;16.53;54.01
60897;BME280;46749;32.932;-117.130;2023-01-27T05:50:57;102462.50;;;16.55;54.29
60897;BME280;46749;32.932;-117.130;2023-01-27T05:53:24;102460.81;;;16.57;53.91
60897;BME280;46749;32.932;-117.130;2023-01-27T05:55:51;102471.31;;;16.57;54.01
60897;BME280;46749;32.932;-117.130;2023-01-27T05:58:18;102467.84;;;16.58;53.95
60897;BME280;46749;32.932;-117.130;2023-01-27T06:00:45;102459.03;;;16.56;54.16
60897;BME280;46749;32.932;-117.130;2023-01-27T06:03:11;102463.41;;;16.55;54.01
60897;BME280;46749;32.932;-117.130;2023-01-27T06:05:38;102461.63;;;16.54;54.03
60897;BME280;46749;32.932;-117.130;2023-01-27T06:08:04;102452.75;;;16.52;53.82
60897;BME280;46749;32.932;-117.130;2023-01-27T06:10:30;102466.72;;;16.51;53.82
60897;BME280;46749;32.932;-117.130;2023-01-27T06:12:57;102463.22;;;16.51;53.76
60897;BME280;46749;32.932;-117.130;2023-01-27T06:15:25;102458.81;;;16.50;53.62
60897;BME280;46749;32.932;-117.130;2023-01-27T06:17:51;102454.41;;;16.49;53.88
60897;BME280;46749;32.932;-117.130;2023-01-27T06:20:17;102449.09;;;16.47;53.82
60897;BME280;46749;32.932;-117.130;2023-01-27T06:22:43;102453.41;;;16.46;53.81
60897;BME280;46749;32.932;-117.130;2023-01-27T06:25:11;102446.38;;;16.45;53.63
60897;BME280;46749;32.932;-117.130;2023-01-27T06:27:37;102436.72;;;16.44;53.58
60897;BME280;46749;32.932;-117.130;2023-01-27T06:30:03;102445.44;;;16.43;53.41
60897;BME280;46749;32.932;-117.130;2023-01-27T06:32:30;102442.75;;;16.42;53.63
60897;BME280;46749;32.932;-117.130;2023-01-27T06:34:56;102443.59;;;16.41;53.54
60897;BME280;46749;32.932;-117.130;2023-01-27T06:37:22;102450.53;;;16.40;53.53
60897;BME280;46749;32.932;-117.130;2023-01-27T06:39:49;102454.91;;;16.40;53.70
60897;BME280;46749;32.932;-117.130;2023-01-27T06:42:15;102444.34;;;16.38;53.39
60897;BME280;46749;32.932;-117.130;2023-01-27T06:44:41;102451.38;;;16.39;53.42
60897;BME280;46749;32.932;-117.130;2023-01-27T06:47:07;102447.81;;;16.37;53.46
60897;BME280;46749;32.932;-117.130;2023-01-27T06:49:34;102454.78;;;16.37;53.52
60897;BME280;46749;32.932;-117.130;2023-01-27T06:52:00;102453.84;;;16.35;53.50
60897;BME280;46749;32.932;-117.130;2023-01-27T06:54:26;102457.34;;;16.35;53.36
60897;BME280;46749;32.932;-117.130;2023-01-27T06:56:53;102464.34;;;16.35;53.41
60897;BME280;46749;32.932;-117.130;2023-01-27T06:59:19;102456.38;;;16.33;53.43
60897;BME280;46749;32.932;-117.130;2023-01-27T07:01:45;102466.81;;;16.32;53.42
60897;BME280;46749;32.932;-117.130;2023-01-27T07:04:11;102464.19;;;16.32;53.36
60897;BME280;46749;32.932;-117.130;2023-01-27T07:06:37;102464.13;;;16.30;53.30
60897;BME280;46749;32.932;-117.130;2023-01-27T07:09:03;102462.34;;;16.29;53.43
60897;BME280;46749;32.932;-117.130;2023-01-27T07:11:30;102470.22;;;16.29;53.25
60897;BME280;46749;32.932;-117.130;2023-01-27T07:13:56;102467.50;;;16.28;53.12
60897;BME280;46749;32.932;-117.130;2023-01-27T07:16:22;102462.28;;;16.28;53.22
60897;BME280;46749;32.932;-117.130;2023-01-27T07:18:48;102456.13;;;16.27;53.30
60897;BME280;46749;32.932;-117.130;2023-01-27T07:21:14;102457.81;;;16.25;53.32
60897;BME280;46749;32.932;-117.130;2023-01-27T07:23:41;102448.22;;;16.26;53.25
60897;BME280;46749;32.932;-117.130;2023-01-27T07:26:07;102453.41;;;16.24;53.30
60897;BME280;46749;32.932;-117.130;2023-01-27T07:28:33;102449.00;;;16.23;53.42
60897;BME280;46749;32.932;-117.130;2023-01-27T07:31:01;102444.59;;;16.22;52.98
60897;BME280;46749;32.932;-117.130;2023-01-27T07:33:27;102444.50;;;16.21;53.24
60897;BME280;46749;32.932;-117.130;2023-01-27T07:35:54;102451.47;;;16.20;53.20
60897;BME280;46749;32.932;-117.130;2023-01-27T07:38:20;102450.59;;;16.19;53.10
60897;BME280;46749;32.932;-117.130;2023-01-27T07:40:46;102451.41;;;16.18;53.38
60897;BME280;46749;32.932;-117.130;2023-01-27T07:43:13;102459.22;;;16.17;53.24
60897;BME280;46749;32.932;-117.130;2023-01-27T07:45:39;102458.34;;;16.16;53.26
60897;BME280;46749;32.932;-117.130;2023-01-27T07:48:06;102450.38;;;16.15;53.20
60897;BME280;46749;32.932;-117.130;2023-01-27T07:50:34;102450.38;;;16.15;53.44
60897;BME280;46749;32.932;-117.130;2023-01-27T07:53:03;102445.97;;;16.14;53.30
60897;BME280;46749;32.932;-117.130;2023-01-27T07:55:31;102442.47;;;16.13;53.32
60897;BME280;46749;32.932;-117.130;2023-01-27T07:57:58;102446.81;;;16.13;53.19
60897;BME280;46749;32.932;-117.130;2023-01-27T08:00:24;102437.13;;;16.10;53.11
60897;BME280;46749;32.932;-117.130;2023-01-27T08:03:22;102437.97;;;16.09;53.19
60897;BME280;46749;32.932;-117.130;2023-01-27T08:05:49;102434.41;;;16.09;53.10
60897;BME280;46749;32.932;-117.130;2023-01-27T08:08:16;102430.91;;;16.08;53.20
60897;BME280;46749;32.932;-117.130;2023-01-27T08:10:43;102416.91;;;16.08;53.16
60897;BME280;46749;32.932;-117.130;2023-01-27T08:13:14;102419.47;;;16.06;53.28
60897;BME280;46749;32.932;-117.130;2023-01-27T08:15:41;102418.56;;;16.06;52.89
60897;BME280;46749;32.932;-117.130;2023-01-27T08:18:08;102410.66;;;16.04;53.11
60897;BME280;46749;32.932;-117.130;2023-01-27T08:20:34;102408.88;;;16.03;52.89
60897;BME280;46749;32.932;-117.130;2023-01-27T08:23:01;102407.94;;;16.03;53.08
60897;BME280;46749;32.932;-117.130;2023-01-27T08:25:27;102409.63;;;16.01;52.93
60897;BME280;46749;32.932;-117.130;2023-01-27T08:27:55;102405.28;;;16.01;53.11
60897;BME280;46749;32.932;-117.130;2023-01-27T08:30:21;102407.00;;;16.01;52.97
60897;BME280;46749;32.932;-117.130;2023-01-27T08:32:48;102402.59;;;16.00;53.13
60897;BME280;46749;32.932;-117.130;2023-01-27T08:35:14;102398.19;;;15.99;53.13
60897;BME280;46749;32.932;-117.130;2023-01-27T08:37:41;102392.06;;;15.98;52.89
60897;BME280;46749;32.932;-117.130;2023-01-27T08:40:07;102393.69;;;15.96;53.07
60897;BME280;46749;32.932;-117.130;2023-01-27T08:42:34;102398.06;;;15.96;53.18
60897;BME280;46749;32.932;-117.130;2023-01-27T08:45:00;102389.31;;;15.95;53.02
60897;BME280;46749;32.932;-117.130;2023-01-27T08:47:26;102393.66;;;15.95;52.96
60897;BME280;46749;32.932;-117.130;2023-01-27T08:49:53;102383.13;;;15.93;52.92
60897;BME280;46749;32.932;-117.130;2023-01-27T08:52:20;102387.47;;;15.93;53.09
60897;BME280;46749;32.932;-117.130;2023-01-27T08:54:48;102378.72;;;15.92;52.88
60897;BME280;46749;32.932;-117.130;2023-01-27T08:57:14;102377.72;;;15.90;53.09
60897;BME280;46749;32.932;-117.130;2023-01-27T08:59:40;102379.47;;;15.89;52.93
60897;BME280;46749;32.932;-117.130;2023-01-27T09:02:07;102374.22;;;15.89;53.14
60897;BME280;46749;32.932;-117.130;2023-01-27T09:04:34;102371.53;;;15.88;53.13
60897;BME280;46749;32.932;-117.130;2023-01-27T09:07:05;102368.03;;;15.87;52.97
60897;BME280;46749;32.932;-117.130;2023-01-27T09:09:32;102369.75;;;15.87;53.32
60897;BME280;46749;32.932;-117.130;2023-01-27T09:11:58;102364.47;;;15.85;53.15
60897;BME280;46749;32.932;-117.130;2023-01-27T09:14:24;102359.22;;;15.85;52.95
60897;BME280;46749;32.932;-117.130;2023-01-27T09:16:50;102354.81;;;15.84;52.88
60897;BME280;46749;32.932;-117.130;2023-01-27T09:19:16;102359.97;;;15.83;53.24
60897;BME280;46749;32.932;-117.130;2023-01-27T09:21:44;102352.13;;;15.83;53.22
60897;BME280;46749;32.932;-117.130;2023-01-27T09:24:10;102340.75;;;15.82;53.22
60897;BME280;46749;32.932;-117.130;2023-01-27T09:26:38;102356.41;;;15.81;53.21
60897;BME280;46749;32.932;-117.130;2023-01-27T09:29:04;102350.28;;;15.80;53.08
60897;BME280;46749;32.932;-117.130;2023-01-27T09:31:30;102348.50;;;15.79;53.25
60897;BME280;46749;32.932;-117.130;2023-01-27T09:33:57;102345.88;;;15.79;53.14
60897;BME280;46749;32.932;-117.130;2023-01-27T09:36:23;102344.09;;;15.78;53.05
60897;BME280;46749;32.932;-117.130;2023-01-27T09:39:07;102349.25;;;15.77;53.10
60897;BME280;46749;32.932;-117.130;2023-01-27T09:42:12;102350.97;;;15.76;53.08
60897;BME280;46749;32.932;-117.130;2023-01-27T09:53:08;102346.50;;;15.74;53.25
60897;BME280;46749;32.932;-117.130;2023-01-27T09:55:55;102351.69;;;15.72;52.99
60897;BME280;46749;32.932;-117.130;2023-01-27T10:09:13;102364.59;;;15.68;53.22
60897;BME280;46749;32.932;-117.130;2023-01-27T10:14:44;102367.16;;;15.66;53.31
60897;BME280;46749;32.932;-117.130;2023-01-27T10:20:18;102364.44;;;15.64;53.36
60897;BME280;46749;32.932;-117.130;2023-01-27T10:23:08;102371.41;;;15.64;53.48
60897;BME280;46749;32.932;-117.130;2023-01-27T10:28:31;102360.78;;;15.61;53.40
60897;BME280;46749;32.932;-117.130;2023-01-27T10:31:03;102371.28;;;15.61;53.42
60897;BME280;46749;32.932;-117.130;2023-01-27T10:36:24;102359.75;;;15.57;53.33
60897;BME280;46749;32.932;-117.130;2023-01-27T10:39:04;102364.09;;;15.57;53.37
60897;BME280;46749;32.932;-117.130;2023-01-27T10:49:55;102347.44;;;15.55;53.54
60897;BME280;46749;32.932;-117.130;2023-01-27T10:52:34;102348.28;;;15.54;53.55
60897;BME280;46749;32.932;-117.130;2023-01-27T10:55:04;102347.38;;;15.53;53.22
60897;BME280;46749;32.932;-117.130;2023-01-27T10:57:38;102344.69;;;15.52;52.97
60897;BME280;46749;32.932;-117.130;2023-01-27T11:00:28;102347.25;;;15.50;53.30
60897;BME280;46749;32.932;-117.130;2023-01-27T11:05:33;102338.44;;;15.48;53.46
60897;BME280;46749;32.932;-117.130;2023-01-27T11:08:17;102335.81;;;15.48;53.19
60897;BME280;46749;32.932;-117.130;2023-01-27T11:10:47;102330.53;;;15.47;53.51
60897;BME280;46749;32.932;-117.130;2023-01-27T11:13:33;102333.94;;;15.46;53.36
60897;BME280;46749;32.932;-117.130;2023-01-27T11:16:00;102332.16;;;15.45;53.47
60897;BME280;46749;32.932;-117.130;2023-01-27T11:18:28;102326.03;;;15.44;53.61
60897;BME280;46749;32.932;-117.130;2023-01-27T11:21:03;102319.91;;;15.44;53.21
60897;BME280;46749;32.932;-117.130;2023-01-27T11:23:33;102322.53;;;15.44;53.49
60897;BME280;46749;32.932;-117.130;2023-01-27T11:32:09;102310.22;;;15.41;53.16
60897;BME280;46749;32.932;-117.130;2023-01-27T11:35:06;102302.28;;;15.39;53.62
60897;BME280;46749;32.932;-117.130;2023-01-27T11:37:42;102311.84;;;15.39;53.35
60897;BME280;46749;32.932;-117.130;2023-01-27T11:40:29;102309.19;;;15.37;53.56
60897;BME280;46749;32.932;-117.130;2023-01-27T11:42:56;102310.00;;;15.36;53.47
60897;BME280;46749;32.932;-117.130;2023-01-27T11:45:24;102299.53;;;15.36;53.81
60897;BME280;46749;32.932;-117.130;2023-01-27T11:47:57;102308.22;;;15.35;53.46
60897;BME280;46749;32.932;-117.130;2023-01-27T11:50:28;102300.31;;;15.34;53.56
60897;BME280;46749;32.932;-117.130;2023-01-27T11:55:47;102298.50;;;15.33;53.36
60897;BME280;46749;32.932;-117.130;2023-01-27T12:00:53;102293.22;;;15.31;53.46
60897;BME280;46749;32.932;-117.130;2023-01-27T12:06:16;102302.75;;;15.29;53.53
60897;BME280;46749;32.932;-117.130;2023-01-27T12:08:47;102314.03;;;15.28;53.57
60897;BME280;46749;32.932;-117.130;2023-01-27T12:11:19;102319.28;;;15.28;53.33
60897;BME280;46749;32.932;-117.130;2023-01-27T12:14:04;102321.81;;;15.27;53.66
60897;BME280;46749;32.932;-117.130;2023-01-27T12:16:45;102315.69;;;15.26;53.41
60897;BME280;46749;32.932;-117.130;2023-01-27T12:19:22;102327.03;;;15.27;53.41
60897;BME280;46749;32.932;-117.130;2023-01-27T12:21:53;102327.88;;;15.26;53.33
60897;BME280;46749;32.932;-117.130;2023-01-27T12:24:28;102314.72;;;15.24;53.42
60897;BME280;46749;32.932;-117.130;2023-01-27T12:26:56;102322.56;;;15.24;53.46
60897;BME280;46749;32.932;-117.130;2023-01-27T12:29:45;102313.78;;;15.22;53.55
60897;BME280;46749;32.932;-117.130;2023-01-27T12:32:33;102312.06;;;15.23;53.50
60897;BME280;46749;32.932;-117.130;2023-01-27T12:34:59;102311.16;;;15.22;53.37
60897;BME280;46749;32.932;-117.130;2023-01-27T12:37:31;102317.28;;;15.23;53.79
60897;BME280;46749;32.932;-117.130;2023-01-27T12:40:00;102312.00;;;15.21;53.36
60897;BME280;46749;32.932;-117.130;2023-01-27T12:42:37;102309.28;;;15.20;53.52
60897;BME280;46749;32.932;-117.130;2023-01-27T12:45:24;102296.16;;;15.18;53.34
60897;BME280;46749;32.932;-117.130;2023-01-27T12:48:32;102297.88;;;15.18;53.45
60897;BME280;46749;32.932;-117.130;2023-01-27T12:50:52;102301.38;;;15.18;53.50
60897;BME280;46749;32.932;-117.130;2023-01-27T12:53:20;102299.59;;;15.17;53.44
60897;BME280;46749;32.932;-117.130;2023-01-27T13:01:00;102281.06;;;15.13;53.77
60897;BME280;46749;32.932;-117.130;2023-01-27T13:03:28;102278.41;;;15.11;53.38
60897;BME280;46749;32.932;-117.130;2023-01-27T13:05:56;102277.50;;;15.10;53.59
60897;BME280;46749;32.932;-117.130;2023-01-27T13:08:26;102271.38;;;15.10;53.42
60897;BME280;46749;32.932;-117.130;2023-01-27T13:11:01;102264.38;;;15.09;53.47
60897;BME280;46749;32.932;-117.130;2023-01-27T13:13:29;102274.84;;;15.09;53.51
60897;BME280;46749;32.932;-117.130;2023-01-27T13:16:26;102271.22;;;15.07;53.82
60897;BME280;46749;32.932;-117.130;2023-01-27T13:18:58;102267.78;;;15.08;53.56
60897;BME280;46749;32.932;-117.130;2023-01-27T13:21:35;102262.56;;;15.08;53.49
60897;BME280;46749;32.932;-117.130;2023-01-27T13:24:05;102249.41;;;15.06;53.64
60897;BME280;46749;32.932;-117.130;2023-01-27T13:26:37;102239.78;;;15.05;53.68
60897;BME280;46749;32.932;-117.130;2023-01-27T13:34:26;102228.38;;;15.03;53.59
60897;BME280;46749;32.932;-117.130;2023-01-27T13:37:00;102226.59;;;15.02;53.63
60897;BME280;46749;32.932;-117.130;2023-01-27T13:52:56;102223.75;;;14.98;53.75
60897;BME280;46749;32.932;-117.130;2023-01-27T13:58:25;102227.22;;;14.97;53.55
60897;BME280;46749;32.932;-117.130;2023-01-27T14:01:04;102218.47;;;14.96;53.57
60897;BME280;46749;32.932;-117.130;2023-01-27T14:06:51;102197.47;;;14.95;53.59
60897;BME280;46749;32.932;-117.130;2023-01-27T14:15:23;102192.13;;;14.92;53.59
60897;BME280;46749;32.932;-117.130;2023-01-27T14:18:00;102191.22;;;14.91;53.69